Time;durP1;ratioP1;P1;durP2;ratioP2;P2;SDS_P1;SDS_P2;PMS_P1;PMS_P2;Temp;Humidity;BMP_temperature;BMP_pressure;BME280_temperature;BME280_humidity;BME280_pressure;Samples;Min_cycle;Max_cycle;Signal;HPM_P1;HPM_P2
2022/04/18 00:01:15;;;;;;;2.42;0.73;;;14.00;80.70;;;;;;5086664;28;20054;-87
2022/04/18 00:03:43;;;;;;;4.30;1.20;;;14.00;80.80;;;;;;5077432;28;20051;-87
2022/04/18 00:06:11;;;;;;;1.75;1.02;;;14.10;80.80;;;;;;5090491;28;20487;-87
2022/04/18 00:08:39;;;;;;;1.77;0.85;;;14.00;81.00;;;;;;5084257;28;20097;-85
2022/04/18 00:11:07;;;;;;;2.38;0.77;;;14.10;81.00;;;;;;5110632;28;20044;-85
2022/04/18 00:13:35;;;;;;;1.95;0.88;;;14.10;81.10;;;;;;5094959;28;20561;-86
2022/04/18 00:16:04;;;;;;;2.40;1.20;;;14.10;81.30;;;;;;5072161;28;20040;-81
2022/04/18 00:18:33;;;;;;;3.10;1.10;;;14.10;81.30;;;;;;5085850;28;20044;-81
2022/04/18 00:21:01;;;;;;;2.03;1.20;;;14.00;81.70;;;;;;5081584;28;20050;-81
2022/04/18 00:23:29;;;;;;;3.72;0.88;;;13.90;81.80;;;;;;5089328;28;20043;-80
2022/04/18 00:25:57;;;;;;;0.93;0.63;;;13.90;82.00;;;;;;5066045;28;20071;-80
2022/04/18 00:28:25;;;;;;;2.00;0.73;;;13.80;82.30;;;;;;5071448;28;20047;-81
2022/04/18 00:30:53;;;;;;;3.40;1.13;;;13.80;82.40;;;;;;5090527;28;20780;-80
2022/04/18 00:33:21;;;;;;;1.13;0.80;;;13.90;82.50;;;;;;5089324;28;20051;-80
2022/04/18 00:35:51;;;;;;;4.72;0.90;;;13.70;82.60;;;;;;5089044;28;20105;-80
2022/04/18 00:38:19;;;;;;;2.92;0.70;;;13.70;83.00;;;;;;5088744;28;20048;-79
2022/04/18 00:40:47;;;;;;;2.28;0.88;;;13.70;82.80;;;;;;5090120;28;20048;-79
2022/04/18 00:43:15;;;;;;;1.77;1.02;;;13.60;83.50;;;;;;5088942;28;20072;-80
2022/04/18 00:45:43;;;;;;;2.00;0.88;;;13.60;84.10;;;;;;5072909;28;20128;-78
2022/04/18 00:48:11;;;;;;;2.05;0.70;;;13.60;84.40;;;;;;5082022;28;20052;-80
2022/04/18 00:50:40;;;;;;;4.53;1.05;;;13.60;84.40;;;;;;5089605;28;20135;-79
2022/04/18 00:53:09;;;;;;;3.10;1.10;;;13.60;84.20;;;;;;5088164;28;20044;-79
2022/04/18 00:55:38;;;;;;;3.08;1.05;;;13.50;84.40;;;;;;5083285;28;20576;-79
2022/04/18 00:58:06;;;;;;;1.67;0.90;;;13.40;84.60;;;;;;5087461;28;20572;-80
2022/04/18 01:00:33;;;;;;;2.88;0.95;;;13.50;84.40;;;;;;5089166;28;20080;-80
2022/04/18 01:03:01;;;;;;;2.65;0.85;;;13.50;84.20;;;;;;5071555;28;20047;-79
2022/04/18 01:05:30;;;;;;;2.75;0.98;;;13.40;84.00;;;;;;5066814;28;20049;-79
2022/04/18 01:07:58;;;;;;;1.75;0.60;;;13.40;84.60;;;;;;5065018;28;20056;-79
2022/04/18 01:10:30;;;;;;;2.20;0.75;;;13.30;84.60;;;;;;5080400;28;20135;-80
2022/04/18 01:12:58;;;;;;;3.80;1.13;;;13.30;84.50;;;;;;5081592;28;20090;-79
2022/04/18 01:15:41;;;;;;;3.28;0.75;;;13.30;84.00;;;;;;5089051;28;20055;-79
2022/04/18 01:18:13;;;;;;;2.45;1.05;;;13.20;83.90;;;;;;5082367;28;20151;-80
2022/04/18 01:21:06;;;;;;;2.53;1.10;;;13.20;83.50;;;;;;5060499;28;20048;-80
2022/04/18 01:23:57;;;;;;;2.45;1.02;;;13.20;83.20;;;;;;5077760;28;20220;-82
2022/04/18 01:29:34;;;;;;;1.87;1.40;;;13.00;83.40;;;;;;5084672;28;20048;-80
2022/04/18 01:32:03;;;;;;;2.08;0.80;;;13.00;83.50;;;;;;5080262;28;20548;-81
2022/04/18 01:34:31;;;;;;;2.83;1.23;;;13.00;83.40;;;;;;5068935;28;20048;-80
2022/04/18 01:37:00;;;;;;;2.15;0.90;;;12.90;83.30;;;;;;5069099;28;20086;-79
2022/04/18 01:39:28;;;;;;;2.15;0.98;;;12.90;83.40;;;;;;5067380;28;20052;-85
2022/04/18 01:41:56;;;;;;;3.15;0.98;;;12.80;83.60;;;;;;5071508;28;20551;-85
2022/04/18 01:44:24;;;;;;;3.08;1.10;;;12.80;83.80;;;;;;5080476;28;20048;-86
2022/04/18 01:46:52;;;;;;;1.98;0.90;;;12.70;83.90;;;;;;5069697;28;20048;-84
2022/04/18 01:49:23;;;;;;;2.25;0.80;;;12.70;84.00;;;;;;5088160;28;20098;-86
2022/04/18 01:51:50;;;;;;;2.83;1.10;;;12.70;84.00;;;;;;5088490;28;20470;-83
2022/04/18 01:54:20;;;;;;;2.28;0.80;;;12.60;84.20;;;;;;5064337;28;20132;-84
2022/04/18 01:56:49;;;;;;;3.30;1.10;;;12.70;84.00;;;;;;5071766;28;20650;-84
2022/04/18 01:59:17;;;;;;;2.00;1.05;;;12.70;84.00;;;;;;5079353;28;20052;-86
2022/04/18 02:01:45;;;;;;;5.55;1.00;;;12.80;84.00;;;;;;5082803;28;20053;-84
2022/04/18 02:04:13;;;;;;;2.25;1.08;;;12.80;83.90;;;;;;5061170;28;20036;-84
2022/04/18 02:06:41;;;;;;;2.13;0.75;;;12.80;83.80;;;;;;5083874;28;20091;-83
2022/04/18 02:09:10;;;;;;;2.47;0.90;;;12.80;83.90;;;;;;5084409;28;20071;-83
2022/04/18 02:11:39;;;;;;;1.52;0.82;;;12.80;83.90;;;;;;5088266;28;20502;-85
2022/04/18 02:14:07;;;;;;;2.55;1.17;;;12.70;83.80;;;;;;5063502;28;20078;-85
2022/04/18 02:16:36;;;;;;;1.98;0.70;;;12.70;84.00;;;;;;5081229;28;20044;-84
2022/04/18 02:19:07;;;;;;;2.10;1.05;;;12.70;84.00;;;;;;5062363;28;20552;-87
2022/04/18 02:21:35;;;;;;;2.42;0.65;;;12.70;84.20;;;;;;5088156;28;20050;-83
2022/04/18 02:24:03;;;;;;;3.45;0.98;;;12.70;84.30;;;;;;5081466;28;20681;-85
2022/04/18 02:26:32;;;;;;;2.30;0.93;;;12.70;84.30;;;;;;5088967;28;20714;-86
2022/04/18 02:29:07;;;;;;;2.13;0.80;;;12.60;84.40;;;;;;5087220;28;20051;-85
2022/04/18 02:34:33;;;;;;;3.13;0.90;;;12.60;84.60;;;;;;5087925;28;20044;-84
2022/04/18 02:37:01;;;;;;;3.38;0.93;;;12.60;84.60;;;;;;5087906;28;20048;-85
2022/04/18 02:39:33;;;;;;;1.75;0.90;;;12.60;84.80;;;;;;5087544;28;20071;-85
2022/04/18 02:42:01;;;;;;;1.90;0.88;;;12.60;85.00;;;;;;5088361;28;20062;-85
2022/04/18 02:44:33;;;;;;;3.15;0.98;;;12.60;85.10;;;;;;5088218;28;20039;-86
2022/04/18 02:47:03;;;;;;;3.28;1.10;;;12.60;85.10;;;;;;5088280;28;20584;-86
2022/04/18 02:49:31;;;;;;;1.90;0.90;;;12.60;85.40;;;;;;5087078;28;20046;-86
2022/04/18 02:52:00;;;;;;;2.10;0.60;;;12.60;85.50;;;;;;5070231;28;20043;-80
2022/04/18 02:54:28;;;;;;;1.58;1.23;;;12.70;85.50;;;;;;5077034;28;20098;-80
2022/04/18 02:56:56;;;;;;;3.28;1.58;;;12.70;85.60;;;;;;5084767;28;20040;-81
2022/04/18 02:59:24;;;;;;;2.80;1.10;;;12.50;85.90;;;;;;5085472;28;20707;-80
2022/04/18 03:01:53;;;;;;;2.33;1.00;;;12.40;85.90;;;;;;5084766;28;20134;-79
2022/04/18 03:04:25;;;;;;;3.40;1.20;;;12.50;86.10;;;;;;5082006;28;20054;-80
2022/04/18 03:06:52;;;;;;;2.45;0.80;;;12.50;86.20;;;;;;5080341;28;20151;-81
2022/04/18 03:09:20;;;;;;;5.80;1.02;;;12.50;86.20;;;;;;5085019;28;20393;-80
2022/04/18 03:11:48;;;;;;;1.70;0.90;;;12.70;86.20;;;;;;5084386;28;20687;-79
2022/04/18 03:14:16;;;;;;;2.15;1.00;;;12.90;85.80;;;;;;5078346;28;20048;-85
2022/04/18 03:16:47;;;;;;;2.05;0.95;;;12.80;85.30;;;;;;5062331;28;20044;-86
2022/04/18 03:19:16;;;;;;;2.40;0.88;;;12.90;85.80;;;;;;5087441;28;20051;-85
2022/04/18 03:21:51;;;;;;;2.25;0.90;;;12.90;85.40;;;;;;5071403;28;20036;-86
2022/04/18 03:24:19;;;;;;;1.88;1.00;;;12.80;85.50;;;;;;5087258;28;20052;-87
2022/04/18 03:26:55;;;;;;;2.08;0.93;;;12.60;85.50;;;;;;5083776;28;20056;-85
2022/04/18 03:29:31;;;;;;;3.55;0.80;;;12.40;85.60;;;;;;5078691;28;20044;-86
2022/04/18 03:32:00;;;;;;;1.98;1.00;;;12.40;86.20;;;;;;5086787;28;20060;-86
2022/04/18 03:34:33;;;;;;;2.58;0.98;;;12.40;86.70;;;;;;5087332;28;20051;-84
2022/04/18 03:39:56;;;;;;;3.38;1.00;;;12.30;88.10;;;;;;5077459;28;20517;-86
2022/04/18 03:42:31;;;;;;;4.97;1.13;;;12.20;87.90;;;;;;5081873;28;20048;-84
2022/04/18 03:45:09;;;;;;;5.72;1.35;;;12.10;88.10;;;;;;5061234;28;20074;-85
2022/04/18 03:47:37;;;;;;;1.50;0.90;;;12.00;88.60;;;;;;5078398;28;20562;-86
2022/04/18 03:50:09;;;;;;;1.85;1.17;;;12.00;89.40;;;;;;5055741;28;20529;-86
2022/04/18 03:52:40;;;;;;;3.53;1.27;;;12.10;89.60;;;;;;5070733;28;20517;-86
2022/04/18 03:55:23;;;;;;;2.78;0.93;;;12.10;89.80;;;;;;5086544;28;20058;-85
2022/04/18 03:57:50;;;;;;;1.98;0.98;;;12.10;89.70;;;;;;5075602;28;20105;-86
2022/04/18 04:00:19;;;;;;;3.50;1.20;;;12.00;88.70;;;;;;5059935;28;20049;-85
2022/04/18 04:02:50;;;;;;;5.55;1.30;;;11.90;88.80;;;;;;5075380;28;20044;-86
2022/04/18 04:05:26;;;;;;;4.43;1.10;;;11.70;88.80;;;;;;5083478;28;20163;-86
2022/04/18 04:07:55;;;;;;;4.03;1.20;;;11.60;89.10;;;;;;5065856;28;20052;-85
2022/04/18 04:10:30;;;;;;;3.75;1.13;;;11.60;89.10;;;;;;5087981;28;20040;-87
2022/04/18 04:12:59;;;;;;;2.20;1.02;;;11.50;88.70;;;;;;5082832;28;20041;-84
2022/04/18 04:15:52;;;;;;;4.32;1.50;;;11.60;88.80;;;;;;5072407;28;20043;-85
2022/04/18 04:18:27;;;;;;;4.38;1.15;;;11.50;88.60;;;;;;5086283;28;20051;-85
2022/04/18 04:21:02;;;;;;;2.45;1.23;;;11.60;88.60;;;;;;5075862;28;20075;-88
2022/04/18 04:23:30;;;;;;;4.60;1.70;;;11.60;88.30;;;;;;5062362;28;20098;-86
2022/04/18 04:26:33;;;;;;;1.63;0.80;;;11.60;88.10;;;;;;5086256;28;20409;-86
2022/04/18 04:29:01;;;;;;;3.63;0.80;;;11.70;87.80;;;;;;5086324;28;20044;-87
2022/04/18 04:31:48;;;;;;;2.22;1.60;;;11.70;87.70;;;;;;5087865;28;20161;-85
2022/04/18 04:34:16;;;;;;;3.55;1.83;;;11.70;87.40;;;;;;5082332;28;20044;-87
2022/04/18 04:37:03;;;;;;;1.60;1.10;;;11.70;87.60;;;;;;5070364;28;20087;-87
2022/04/18 04:39:31;;;;;;;1.92;0.88;;;11.80;87.40;;;;;;5086383;28;20044;-86
2022/04/18 04:41:59;;;;;;;2.00;0.90;;;11.70;87.30;;;;;;5069685;28;20047;-87
2022/04/18 04:44:28;;;;;;;2.60;0.77;;;11.70;87.50;;;;;;5086162;28;20385;-87
2022/04/18 04:46:59;;;;;;;4.10;1.20;;;11.80;87.40;;;;;;5094906;28;20063;-84
2022/04/18 04:49:29;;;;;;;3.60;1.10;;;11.90;86.80;;;;;;5086094;28;20593;-87
2022/04/18 04:52:12;;;;;;;2.38;0.93;;;12.00;87.00;;;;;;5086569;28;20057;-86
2022/04/18 04:54:41;;;;;;;2.72;0.82;;;11.90;87.10;;;;;;5076309;28;20052;-86
2022/04/18 04:57:13;;;;;;;3.15;1.30;;;11.90;86.90;;;;;;5089517;28;20052;-86
2022/04/18 05:00:16;;;;;;;1.77;1.13;;;12.00;87.10;;;;;;5048738;28;20106;-85
2022/04/18 05:03:05;;;;;;;2.95;0.90;;;12.00;86.60;;;;;;5034623;28;20052;-87
2022/04/18 05:05:33;;;;;;;3.10;1.27;;;12.00;86.80;;;;;;5037278;28;20257;-87
2022/04/18 05:08:04;;;;;;;2.47;1.25;;;11.90;87.10;;;;;;5031285;28;20064;-86
2022/04/18 05:10:33;;;;;;;2.78;1.08;;;11.90;86.90;;;;;;5031723;28;20065;-86
2022/04/18 05:13:08;;;;;;;3.45;1.25;;;12.00;86.70;;;;;;5032296;28;20041;-87
2022/04/18 05:15:37;;;;;;;4.47;2.47;;;12.00;86.40;;;;;;5031727;28;20056;-85
2022/04/18 05:18:23;;;;;;;;;;;12.10;86.60;;;;;;5034786;28;20056;-86
2022/04/18 05:20:51;;;;;;;15.63;10.60;;;12.10;86.80;;;;;;5031732;28;19932;-86
2022/04/18 05:23:21;;;;;;;16.90;10.15;;;12.10;86.90;;;;;;5028814;28;20582;-87
2022/04/18 05:25:53;;;;;;;15.15;10.77;;;12.30;86.60;;;;;;5030546;28;20074;-87
2022/04/18 05:28:21;;;;;;;19.08;11.52;;;12.40;86.40;;;;;;5043067;28;20053;-86
2022/04/18 05:30:54;;;;;;;17.45;11.80;;;12.50;85.90;;;;;;5015422;28;20037;-87
2022/04/18 05:33:23;;;;;;;14.98;10.10;;;12.60;86.20;;;;;;5034501;28;20087;-87
2022/04/18 05:36:11;;;;;;;14.45;9.48;;;12.70;86.30;;;;;;5089108;28;20051;-87
2022/04/18 05:38:41;;;;;;;9.48;6.30;;;12.70;86.80;;;;;;5088852;28;20052;-87
2022/04/18 05:41:16;;;;;;;11.07;6.45;;;12.80;86.80;;;;;;5069890;28;20125;-87
2022/04/18 05:43:49;;;;;;;9.85;6.93;;;12.70;87.70;;;;;;5083573;28;20147;-87
2022/04/18 05:46:22;;;;;;;6.20;4.20;;;12.50;88.60;;;;;;5078726;28;20044;-86
2022/04/18 05:48:50;;;;;;;4.88;3.35;;;12.50;88.70;;;;;;5086917;28;20036;-86
2022/04/18 05:51:24;;;;;;;6.40;3.72;;;12.60;88.40;;;;;;5087551;28;21304;-81
2022/04/18 05:54:00;;;;;;;4.88;3.17;;;12.70;88.20;;;;;;5059209;28;20068;-81
2022/04/18 05:56:50;;;;;;;5.28;2.58;;;12.90;87.80;;;;;;5079425;28;20139;-80
2022/04/18 05:59:24;;;;;;;3.35;2.13;;;13.10;86.90;;;;;;5065430;28;20054;-80
2022/04/18 06:01:59;;;;;;;2.70;1.75;;;13.10;86.20;;;;;;5085331;28;20134;-81
2022/04/18 06:04:33;;;;;;;3.97;2.03;;;13.10;86.30;;;;;;5068400;28;20057;-81
2022/04/18 06:07:20;;;;;;;2.53;1.50;;;13.10;86.10;;;;;;5067542;28;20540;-81
2022/04/18 06:10:04;;;;;;;4.55;1.90;;;13.10;85.50;;;;;;5079388;28;20299;-81
2022/04/18 06:12:32;;;;;;;3.53;1.40;;;13.10;85.00;;;;;;5066110;28;20056;-80
2022/04/18 06:15:00;;;;;;;3.45;1.40;;;13.20;84.90;;;;;;5071162;28;20101;-81
2022/04/18 06:17:29;;;;;;;1.83;1.25;;;13.20;84.50;;;;;;5068636;28;20052;-81
2022/04/18 06:20:01;;;;;;;2.30;1.42;;;13.30;83.60;;;;;;5084562;28;20513;-81
2022/04/18 06:22:30;;;;;;;3.88;1.55;;;13.30;83.50;;;;;;5084507;28;20498;-81
2022/04/18 06:24:59;;;;;;;2.60;1.15;;;13.40;83.70;;;;;;5084751;28;20472;-80
2022/04/18 06:27:30;;;;;;;3.95;1.35;;;13.40;83.30;;;;;;5068525;28;20070;-80
2022/04/18 06:29:59;;;;;;;5.07;1.35;;;13.60;83.50;;;;;;5082737;28;20626;-81
2022/04/18 06:32:37;;;;;;;6.55;1.77;;;13.60;82.70;;;;;;5082628;28;20082;-80
2022/04/18 06:35:05;;;;;;;2.22;1.20;;;13.60;82.80;;;;;;5083915;28;20048;-81
2022/04/18 06:37:34;;;;;;;2.67;1.10;;;13.60;82.70;;;;;;5084760;28;20697;-81
2022/04/18 06:40:27;;;;;;;2.35;0.93;;;13.60;81.80;;;;;;5083401;28;20052;-81
2022/04/18 06:42:57;;;;;;;2.25;1.02;;;13.60;82.30;;;;;;5067239;28;20489;-81
2022/04/18 06:45:31;;;;;;;2.40;1.25;;;13.60;80.90;;;;;;5080267;28;20054;-81
2022/04/18 06:48:02;;;;;;;10.45;2.65;;;13.60;81.40;;;;;;5068072;28;20052;-81
2022/04/18 06:50:50;;;;;;;3.35;1.30;;;13.70;81.70;;;;;;5072322;28;20402;-82
2022/04/18 06:53:57;;;;;;;3.35;1.13;;;13.70;81.40;;;;;;5084947;28;20516;-81
2022/04/18 06:59:58;;;;;;;2.53;1.00;;;13.80;81.20;;;;;;4960996;28;20108;-90
2022/04/18 07:02:28;;;;;;;1.80;1.05;;;13.80;81.20;;;;;;4935245;28;20062;-85
2022/04/18 07:04:57;;;;;;;2.05;0.90;;;13.80;81.60;;;;;;4939853;29;20159;-85
2022/04/18 07:07:25;;;;;;;2.80;1.00;;;13.90;81.70;;;;;;4941549;28;20051;-85
2022/04/18 07:09:54;;;;;;;2.38;1.05;;;13.90;81.00;;;;;;4944549;29;20067;-86
2022/04/18 07:12:23;;;;;;;2.53;1.00;;;13.90;81.60;;;;;;4926526;29;20051;-80
2022/04/18 07:14:55;;;;;;;2.20;1.10;;;14.00;81.50;;;;;;4927616;29;20102;-82
2022/04/18 07:17:25;;;;;;;3.55;1.20;;;13.90;80.80;;;;;;4942038;28;20046;-82
2022/04/18 07:19:55;;;;;;;4.40;1.13;;;14.00;81.70;;;;;;4937619;29;20665;-82
2022/04/18 07:22:26;;;;;;;3.33;1.20;;;14.10;82.30;;;;;;4928003;29;20058;-83
2022/04/18 07:24:59;;;;;;;2.80;1.00;;;14.20;81.90;;;;;;4943786;29;20044;-82
2022/04/18 07:27:32;;;;;;;2.47;0.98;;;14.20;81.30;;;;;;4935356;29;20453;-85
2022/04/18 07:30:04;;;;;;;2.60;0.90;;;14.20;80.80;;;;;;4939166;29;20501;-88
2022/04/18 07:32:40;;;;;;;3.30;0.98;;;14.20;80.10;;;;;;4941077;28;20052;-87
2022/04/18 07:35:12;;;;;;;1.95;1.20;;;14.20;79.80;;;;;;4938417;29;20493;-86
2022/04/18 07:41:04;;;;;;;2.55;1.00;;;14.40;80.30;;;;;;5038554;28;20115;-88
2022/04/18 07:43:39;;;;;;;2.70;1.00;;;14.40;79.70;;;;;;5002420;28;20136;-87
2022/04/18 07:46:12;;;;;;;2.60;1.90;;;14.40;79.60;;;;;;5026912;28;20123;-85
2022/04/18 07:48:42;;;;;;;3.15;1.00;;;14.50;80.30;;;;;;5020889;28;20065;-84
2022/04/18 07:53:58;;;;;;;2.95;1.20;;;14.70;79.90;;;;;;5017072;28;20052;-85
2022/04/18 07:56:28;;;;;;;3.55;1.40;;;14.70;80.20;;;;;;5005035;28;20057;-86
2022/04/18 07:58:57;;;;;;;2.13;0.80;;;14.80;80.70;;;;;;5020738;28;20088;-89
2022/04/18 08:02:19;;;;;;;1.52;1.15;;;14.80;79.50;;;;;;5017976;28;20077;-91
2022/04/18 08:05:09;;;;;;;1.83;1.05;;;14.90;79.50;;;;;;5020107;28;20056;-83
2022/04/18 08:07:57;;;;;;;3.35;1.25;;;15.00;79.50;;;;;;5017807;28;20057;-84
2022/04/18 08:10:26;;;;;;;2.10;1.10;;;15.00;79.50;;;;;;5007156;28;20069;-86
2022/04/18 08:12:54;;;;;;;4.57;1.67;;;15.20;79.80;;;;;;5041437;28;20091;-85
2022/04/18 08:15:37;;;;;;;2.22;1.10;;;15.20;79.50;;;;;;5023201;28;20135;-84
2022/04/18 08:18:44;;;;;;;5.90;1.27;;;15.20;79.40;;;;;;4992880;28;20050;-83
2022/04/18 08:21:32;;;;;;;2.40;0.90;;;15.40;81.80;;;;;;4965739;28;20043;-86
2022/04/18 08:24:00;;;;;;;2.75;1.13;;;15.50;81.00;;;;;;5000350;28;20097;-85
2022/04/18 08:26:38;;;;;;;4.68;0.95;;;15.60;82.20;;;;;;4996993;28;20534;-91
2022/04/18 08:29:18;;;;;;;2.35;0.80;;;15.70;81.80;;;;;;4987357;28;20934;-90
2022/04/18 08:32:08;;;;;;;1.08;0.90;;;15.70;80.50;;;;;;4978490;28;20274;-86
2022/04/18 08:34:36;;;;;;;3.03;1.42;;;15.80;81.30;;;;;;4995616;28;20056;-92
2022/04/18 08:37:07;;;;;;;1.52;1.00;;;15.90;80.40;;;;;;4977454;28;20509;-95
2022/04/18 08:39:54;;;;;;;5.97;1.20;;;15.90;79.10;;;;;;5001568;28;20385;-86
2022/04/18 08:42:25;;;;;;;2.15;1.00;;;16.10;78.60;;;;;;4992558;28;20042;-86
2022/04/18 08:44:54;;;;;;;1.85;1.00;;;16.10;78.00;;;;;;4992961;28;20049;-86
2022/04/18 08:53:00;;;;;;;3.17;1.08;;;16.20;79.90;;;;;;5014070;28;20057;-83
2022/04/18 08:55:37;;;;;;;1.42;1.00;;;16.20;78.90;;;;;;5010320;28;20049;-83
2022/04/18 08:58:35;;;;;;;1.80;0.90;;;16.30;78.70;;;;;;5009613;28;20141;-86
2022/04/18 09:05:13;;;;;;;3.15;1.02;;;16.50;79.30;;;;;;5001866;28;20117;-85
2022/04/18 09:07:43;;;;;;;2.53;1.10;;;16.50;79.00;;;;;;4991272;28;20082;-87
2022/04/18 09:10:22;;;;;;;2.40;1.10;;;16.70;78.50;;;;;;4991940;28;20058;-86
2022/04/18 09:12:52;;;;;;;2.83;1.00;;;16.80;77.80;;;;;;4991083;28;20049;-86
2022/04/18 09:15:39;;;;;;;2.20;1.08;;;16.90;77.40;;;;;;4986959;28;20077;-87
2022/04/18 09:18:12;;;;;;;1.90;0.88;;;16.90;77.00;;;;;;4992015;28;20057;-85
2022/04/18 09:20:49;;;;;;;2.92;1.65;;;16.80;77.60;;;;;;4985455;28;20042;-86
2022/04/18 09:23:25;;;;;;;1.15;0.63;;;16.80;77.90;;;;;;4982148;28;20125;-85
2022/04/18 09:26:00;;;;;;;2.55;0.88;;;17.00;78.10;;;;;;4990636;28;20081;-87
2022/04/18 09:28:31;;;;;;;1.75;0.90;;;17.10;78.50;;;;;;4989428;28;20060;-85
2022/04/18 09:31:02;;;;;;;3.22;0.93;;;17.10;77.70;;;;;;4990717;28;20050;-86
2022/04/18 09:33:46;;;;;;;3.53;0.90;;;17.10;77.60;;;;;;4992053;28;20396;-86
2022/04/18 09:36:18;;;;;;;4.55;0.82;;;17.10;77.60;;;;;;4988396;28;20702;-86
2022/04/18 09:38:50;;;;;;;1.35;0.85;;;17.20;77.30;;;;;;5011375;28;20054;-86
2022/04/18 09:42:09;;;;;;;1.73;0.80;;;17.30;76.70;;;;;;4976161;28;20055;-86
2022/04/18 09:44:56;;;;;;;1.30;0.60;;;17.40;76.10;;;;;;4979426;28;20053;-86
2022/04/18 09:47:33;;;;;;;1.75;0.70;;;17.50;75.90;;;;;;4988519;28;20046;-86
2022/04/18 09:50:58;;;;;;;2.33;0.93;;;17.60;75.40;;;;;;4988896;28;20046;-88
2022/04/18 09:53:07;;;;;;;2.47;0.90;;;17.70;75.90;;;;;;4998242;28;20043;-85
2022/04/18 09:55:35;;;;;;;3.58;0.98;;;17.80;76.00;;;;;;4989308;28;20045;-88
2022/04/18 09:58:05;;;;;;;2.88;1.20;;;17.80;75.80;;;;;;5007378;28;20061;-86
2022/04/18 10:00:53;;;;;;;1.50;0.80;;;17.70;76.10;;;;;;5018591;28;20037;-87
2022/04/18 10:03:21;;;;;;;1.50;0.60;;;17.70;75.90;;;;;;5015328;28;20065;-87
2022/04/18 10:05:50;;;;;;;3.22;1.05;;;17.80;75.90;;;;;;5011026;28;20050;-84
2022/04/18 10:08:19;;;;;;;2.28;1.10;;;17.90;75.90;;;;;;5027862;28;20045;-86
2022/04/18 10:10:48;;;;;;;2.00;1.23;;;17.80;76.20;;;;;;5024863;28;20041;-85
2022/04/18 10:13:19;;;;;;;2.67;1.13;;;17.70;76.50;;;;;;5011285;28;20052;-87
2022/04/18 10:15:50;;;;;;;3.75;1.02;;;18.00;76.20;;;;;;5023473;28;20048;-87
2022/04/18 10:18:18;;;;;;;4.65;1.13;;;18.10;76.50;;;;;;5025666;28;20155;-90
2022/04/18 10:20:56;;;;;;;1.75;1.05;;;18.20;75.70;;;;;;5028037;28;20045;-86
2022/04/18 10:24:01;;;;;;;2.22;1.30;;;18.30;75.40;;;;;;5024582;28;20045;-88
2022/04/18 10:27:24;;;;;;;2.20;1.00;;;18.20;76.10;;;;;;5028434;28;20051;-87
2022/04/18 10:29:54;;;;;;;1.70;0.68;;;18.50;75.60;;;;;;5018426;28;20560;-86
2022/04/18 10:32:25;;;;;;;2.33;1.00;;;18.50;74.90;;;;;;5017642;28;20088;-85
2022/04/18 10:34:57;;;;;;;1.88;0.93;;;18.50;74.50;;;;;;5020794;28;20053;-90
2022/04/18 10:37:26;;;;;;;2.05;1.10;;;18.70;75.10;;;;;;4996245;28;20053;-89
2022/04/18 10:39:59;;;;;;;2.75;1.15;;;18.90;74.20;;;;;;5019708;28;20045;-87
2022/04/18 10:42:31;;;;;;;2.30;0.95;;;19.00;74.50;;;;;;5016389;28;20052;-88
2022/04/18 10:45:06;;;;;;;2.15;1.00;;;19.30;74.70;;;;;;5028305;28;20589;-88
2022/04/18 10:48:06;;;;;;;2.35;0.98;;;19.40;73.80;;;;;;5019066;28;20060;-89
2022/04/18 10:50:36;;;;;;;3.50;1.10;;;19.50;73.80;;;;;;5022137;28;20041;-89
2022/04/18 10:53:19;;;;;;;1.45;0.90;;;19.60;74.00;;;;;;5018454;28;20053;-89
2022/04/18 10:56:21;;;;;;;2.65;1.15;;;19.50;74.00;;;;;;5009488;28;20041;-87
2022/04/18 10:58:50;;;;;;;2.17;1.33;;;19.50;73.50;;;;;;5012793;28;20065;-86
2022/04/18 11:01:20;;;;;;;3.08;0.90;;;19.70;73.40;;;;;;5023988;28;20042;-89
2022/04/18 11:04:00;;;;;;;1.98;0.80;;;19.80;73.50;;;;;;5025145;28;20518;-86
2022/04/18 11:06:49;;;;;;;3.20;0.95;;;19.60;72.60;;;;;;5017054;28;20411;-86
2022/04/18 11:09:20;;;;;;;1.85;0.85;;;19.60;73.20;;;;;;5022996;28;20164;-86
2022/04/18 11:11:55;;;;;;;2.88;1.00;;;19.70;72.80;;;;;;5012710;28;20528;-87
2022/04/18 11:14:24;;;;;;;1.25;0.77;;;19.80;71.80;;;;;;5028564;28;20119;-87
2022/04/18 11:16:59;;;;;;;2.78;0.80;;;19.80;72.00;;;;;;5019303;28;20088;-87
2022/04/18 11:19:29;;;;;;;1.25;0.75;;;19.70;72.90;;;;;;5022637;28;20042;-87
2022/04/18 11:22:19;;;;;;;1.95;0.90;;;19.80;73.50;;;;;;5037827;28;20571;-88
2022/04/18 11:24:59;;;;;;;2.20;0.90;;;20.00;73.50;;;;;;5001595;28;20089;-86
2022/04/18 11:27:33;;;;;;;2.42;0.98;;;19.80;73.30;;;;;;5017793;28;20073;-86
2022/04/18 11:30:03;;;;;;;1.55;0.80;;;19.90;72.60;;;;;;5018548;28;20059;-87
2022/04/18 11:32:34;;;;;;;2.78;0.75;;;20.10;71.70;;;;;;5025635;28;20065;-87
2022/04/18 11:35:05;;;;;;;1.67;0.80;;;20.20;72.20;;;;;;5015420;28;20045;-89
2022/04/18 11:37:35;;;;;;;2.30;1.20;;;20.40;71.10;;;;;;5016301;28;20050;-86
2022/04/18 11:40:06;;;;;;;1.80;1.20;;;20.30;71.30;;;;;;5025824;28;20467;-88
2022/04/18 11:42:34;;;;;;;1.67;0.95;;;20.50;71.60;;;;;;5019226;28;20049;-86
2022/04/18 11:45:04;;;;;;;2.70;0.90;;;20.70;71.20;;;;;;5023633;28;20049;-86
2022/04/18 11:47:36;;;;;;;4.10;1.45;;;20.70;69.90;;;;;;5019266;28;20046;-86
2022/04/18 11:50:07;;;;;;;2.38;0.90;;;20.70;71.00;;;;;;5017680;28;20096;-86
2022/04/18 11:52:36;;;;;;;1.40;0.80;;;20.70;70.70;;;;;;5012207;28;20129;-85
2022/04/18 11:55:06;;;;;;;1.23;0.85;;;20.90;71.80;;;;;;5015964;28;20124;-85
2022/04/18 11:57:36;;;;;;;1.65;0.93;;;21.20;71.30;;;;;;5014802;28;20058;-85
2022/04/18 12:00:07;;;;;;;1.13;0.65;;;21.00;70.70;;;;;;5026095;28;20049;-85
2022/04/18 12:08:18;;;;;;;3.65;1.10;;;21.10;70.50;;;;;;5027156;28;20049;-85
2022/04/18 12:10:49;;;;;;;2.00;0.88;;;21.20;70.90;;;;;;5020454;28;20033;-85
2022/04/18 12:13:17;;;;;;;3.05;0.70;;;21.40;70.90;;;;;;5024784;28;20045;-86
2022/04/18 12:15:45;;;;;;;4.32;0.90;;;21.60;70.30;;;;;;5038066;28;20112;-87
2022/04/18 12:18:16;;;;;;;2.03;0.80;;;21.70;70.20;;;;;;5020654;28;20140;-86
2022/04/18 12:20:45;;;;;;;1.40;0.80;;;21.80;70.20;;;;;;5025570;28;20053;-85
2022/04/18 12:23:19;;;;;;;2.42;0.73;;;21.80;70.70;;;;;;5025280;28;20045;-86
2022/04/18 12:25:50;;;;;;;1.77;1.08;;;21.80;70.20;;;;;;5035663;28;20046;-86
2022/04/18 12:28:20;;;;;;;1.92;0.90;;;22.00;69.70;;;;;;5023554;28;20140;-86
2022/04/18 12:30:48;;;;;;;1.95;1.00;;;22.20;69.30;;;;;;5021510;28;20655;-86
2022/04/18 12:33:20;;;;;;;2.92;1.00;;;22.30;70.10;;;;;;5019406;28;20128;-85
2022/04/18 12:35:48;;;;;;;2.10;1.00;;;22.20;68.50;;;;;;5009331;28;20369;-87
2022/04/18 12:38:30;;;;;;;1.65;0.77;;;22.30;69.60;;;;;;5016085;28;20120;-84
2022/04/18 12:40:58;;;;;;;2.42;0.68;;;22.40;69.50;;;;;;5017952;28;20132;-85
2022/04/18 12:43:28;;;;;;;1.55;0.80;;;22.50;68.80;;;;;;5017682;28;20052;-84
2022/04/18 12:45:58;;;;;;;2.10;1.00;;;22.50;68.50;;;;;;5026049;28;20046;-84
2022/04/18 12:48:28;;;;;;;2.47;0.80;;;22.50;69.30;;;;;;5023525;28;20322;-84
2022/04/18 12:50:58;;;;;;;1.55;1.15;;;22.60;70.00;;;;;;4999191;28;20096;-86
2022/04/18 12:53:45;;;;;;;2.03;0.93;;;22.40;69.80;;;;;;5024561;28;20053;-87
2022/04/18 12:56:20;;;;;;;1.98;1.00;;;22.30;69.80;;;;;;5015037;28;20486;-86
2022/04/18 12:58:49;;;;;;;1.10;0.80;;;22.30;68.80;;;;;;5017758;28;20067;-87
2022/04/18 13:01:29;;;;;;;1.60;0.65;;;22.10;69.60;;;;;;5000913;28;20054;-86
2022/04/18 13:04:03;;;;;;;3.47;1.02;;;21.90;68.20;;;;;;5025934;28;20042;-86
2022/04/18 13:06:32;;;;;;;2.53;1.05;;;21.90;69.50;;;;;;5014160;28;20042;-85
2022/04/18 13:09:04;;;;;;;2.35;1.10;;;21.80;68.90;;;;;;5030847;28;20184;-87
2022/04/18 13:11:37;;;;;;;2.38;1.17;;;21.70;68.80;;;;;;5013806;28;20045;-85
2022/04/18 13:14:05;;;;;;;1.13;0.75;;;21.50;69.00;;;;;;5011208;28;20045;-86
2022/04/18 13:16:33;;;;;;;3.17;0.93;;;21.40;69.10;;;;;;5007456;28;20041;-86
2022/04/18 13:19:07;;;;;;;1.17;0.80;;;21.50;70.20;;;;;;5009333;28;20064;-86
2022/04/18 13:21:35;;;;;;;3.38;1.48;;;21.70;68.60;;;;;;5018596;28;21029;-85
2022/04/18 13:24:05;;;;;;;2.90;1.00;;;21.80;67.70;;;;;;5022682;28;20042;-86
2022/04/18 13:26:33;;;;;;;3.25;1.00;;;21.80;68.60;;;;;;5025716;28;20623;-85
2022/04/18 13:29:02;;;;;;;3.63;1.00;;;21.90;67.80;;;;;;5001245;28;20041;-85
2022/04/18 13:31:31;;;;;;;1.52;0.90;;;22.20;68.30;;;;;;5021082;28;20113;-86
2022/04/18 13:33:59;;;;;;;1.17;0.88;;;22.40;67.90;;;;;;5046516;28;20399;-85
2022/04/18 13:36:36;;;;;;;1.60;0.85;;;22.60;67.60;;;;;;5021978;28;20059;-85
2022/04/18 13:39:06;;;;;;;2.67;0.82;;;22.70;67.60;;;;;;5027466;28;20049;-85
2022/04/18 13:41:34;;;;;;;3.72;1.00;;;22.80;67.40;;;;;;5009055;28;20056;-86
2022/04/18 13:44:03;;;;;;;2.05;1.00;;;23.30;68.30;;;;;;5016993;28;20538;-86
2022/04/18 13:46:31;;;;;;;2.63;0.68;;;23.60;68.00;;;;;;5009189;28;20446;-86
2022/04/18 13:48:59;;;;;;;2.17;1.10;;;23.90;66.50;;;;;;5028330;28;20065;-85
2022/04/18 13:51:35;;;;;;;2.63;1.17;;;23.90;66.90;;;;;;5027358;28;20046;-85